sensor_id;sensor_type;location;lat;lon;timestamp;P1;P2;P0
46381;PMS5003;66809;52.974;-2.514;2023-04-03T00:00:33;8.116666666666667;6.683333333333334;
46381;PMS5003;66809;52.974;-2.514;2023-04-03T00:02:33;8.15;6.683333333333334;
46381;PMS5003;66809;52.974;-2.514;2023-04-03T00:04:34;8.15;6.65;
46381;PMS5003;66809;52.974;-2.514;2023-04-03T00:06:33;8.083333333333334;6.5;
46381;PMS5003;66809;52.974;-2.514;2023-04-03T00:08:34;8.016666666666667;6.483333333333333;
46381;PMS5003;66809;52.974;-2.514;2023-04-03T00:10:33;7.983333333333333;6.483333333333333;
46381;PMS5003;66809;52.974;-2.514;2023-04-03T00:12:33;7.95;6.45;
46381;PMS5003;66809;52.974;-2.514;2023-04-03T00:14:33;8.033333333333333;6.45;
46381;PMS5003;66809;52.974;-2.514;2023-04-03T00:16:34;7.9;6.366666666666666;
46381;PMS5003;66809;52.974;-2.514;2023-04-03T00:18:33;7.883333333333334;6.316666666666666;
46381;PMS5003;66809;52.974;-2.514;2023-04-03T00:20:33;7.783333333333333;6.283333333333333;
46381;PMS5003;66809;52.974;-2.514;2023-04-03T00:22:34;7.733333333333333;6.233333333333333;
46381;PMS5003;66809;52.974;-2.514;2023-04-03T00:24:33;7.75;6.266666666666667;
46381;PMS5003;66809;52.974;-2.514;2023-04-03T00:26:33;7.816666666666666;6.283333333333333;
46381;PMS5003;66809;52.974;-2.514;2023-04-03T00:28:34;7.8;6.283333333333333;
46381;PMS5003;66809;52.974;-2.514;2023-04-03T00:30:33;7.833333333333333;6.366666666666666;
46381;PMS5003;66809;52.974;-2.514;2023-04-03T00:32:33;7.816666666666666;6.35;
46381;PMS5003;66809;52.974;-2.514;2023-04-03T00:34:34;7.816666666666666;6.416666666666667;
46381;PMS5003;66809;52.974;-2.514;2023-04-03T00:36:33;7.816666666666666;6.483333333333333;
46381;PMS5003;66809;52.974;-2.514;2023-04-03T00:38:33;7.733333333333333;6.5;
46381;PMS5003;66809;52.974;-2.514;2023-04-03T00:40:39;7.8;6.516666666666667;
46381;PMS5003;66809;52.974;-2.514;2023-04-03T00:42:33;7.8;6.566666666666666;
46381;PMS5003;66809;52.974;-2.514;2023-04-03T00:45:39;7.75;6.583333333333333;
46381;PMS5003;66809;52.974;-2.514;2023-04-03T00:46:33;7.783333333333333;6.616666666666666;
46381;PMS5003;66809;52.974;-2.514;2023-04-03T00:48:34;7.85;6.616666666666666;
46381;PMS5003;66809;52.974;-2.514;2023-04-03T00:50:34;7.816666666666666;6.633333333333334;
46381;PMS5003;66809;52.974;-2.514;2023-04-03T00:52:33;7.75;6.616666666666666;
46381;PMS5003;66809;52.974;-2.514;2023-04-03T00:54:33;7.833333333333333;6.65;
46381;PMS5003;66809;52.974;-2.514;2023-04-03T00:56:33;7.783333333333333;6.566666666666666;
46381;PMS5003;66809;52.974;-2.514;2023-04-03T00:58:35;7.816666666666666;6.6;
46381;PMS5003;66809;52.974;-2.514;2023-04-03T01:00:33;7.9;6.6;
46381;PMS5003;66809;52.974;-2.514;2023-04-03T01:02:33;7.816666666666666;6.566666666666666;
46381;PMS5003;66809;52.974;-2.514;2023-04-03T01:04:35;7.766666666666667;6.55;
46381;PMS5003;66809;52.974;-2.514;2023-04-03T01:06:34;7.7;6.583333333333333;
46381;PMS5003;66809;52.974;-2.514;2023-04-03T01:08:34;7.733333333333333;6.616666666666666;
46381;PMS5003;66809;52.974;-2.514;2023-04-03T01:10:33;7.833333333333333;6.666666666666667;
46381;PMS5003;66809;52.974;-2.514;2023-04-03T01:12:34;7.833333333333333;6.683333333333334;
46381;PMS5003;66809;52.974;-2.514;2023-04-03T01:14:33;7.816666666666666;6.716666666666667;
46381;PMS5003;66809;52.974;-2.514;2023-04-03T01:16:34;7.866666666666666;6.733333333333333;
46381;PMS5003;66809;52.974;-2.514;2023-04-03T01:18:34;7.833333333333333;6.766666666666667;
46381;PMS5003;66809;52.974;-2.514;2023-04-03T01:20:39;8.0;6.85;
46381;PMS5003;66809;52.974;-2.514;2023-04-03T01:22:34;7.983333333333333;6.85;
46381;PMS5003;66809;52.974;-2.514;2023-04-03T01:24:34;7.95;6.833333333333333;
46381;PMS5003;66809;52.974;-2.514;2023-04-03T01:26:33;7.966666666666667;6.916666666666667;
46381;PMS5003;66809;52.974;-2.514;2023-04-03T01:28:34;8.05;6.916666666666667;
46381;PMS5003;66809;52.974;-2.514;2023-04-03T01:30:34;8.133333333333333;6.9;
46381;PMS5003;66809;52.974;-2.514;2023-04-03T01:32:33;8.15;6.966666666666667;
46381;PMS5003;66809;52.974;-2.514;2023-04-03T01:34:34;8.116666666666667;6.933333333333334;
46381;PMS5003;66809;52.974;-2.514;2023-04-03T01:36:33;8.133333333333333;6.916666666666667;
46381;PMS5003;66809;52.974;-2.514;2023-04-03T01:38:33;8.183333333333334;6.933333333333334;
46381;PMS5003;66809;52.974;-2.514;2023-04-03T01:40:34;8.183333333333334;6.95;
46381;PMS5003;66809;52.974;-2.514;2023-04-03T01:42:33;8.216666666666667;7.0;
46381;PMS5003;66809;52.974;-2.514;2023-04-03T01:44:33;8.166666666666666;6.95;
46381;PMS5003;66809;52.974;-2.514;2023-04-03T01:46:34;8.133333333333333;6.883333333333334;
46381;PMS5003;66809;52.974;-2.514;2023-04-03T01:48:33;8.1;6.866666666666666;
46381;PMS5003;66809;52.974;-2.514;2023-04-03T01:50:34;8.1;6.916666666666667;
46381;PMS5003;66809;52.974;-2.514;2023-04-03T01:52:33;8.033333333333333;6.883333333333334;
46381;PMS5003;66809;52.974;-2.514;2023-04-03T01:54:33;8.066666666666666;6.9;
46381;PMS5003;66809;52.974;-2.514;2023-04-03T01:56:34;8.016666666666667;6.9;
46381;PMS5003;66809;52.974;-2.514;2023-04-03T01:58:33;8.016666666666667;6.9;
46381;PMS5003;66809;52.974;-2.514;2023-04-03T02:00:33;8.0;6.916666666666667;
46381;PMS5003;66809;52.974;-2.514;2023-04-03T02:02:34;8.016666666666667;6.933333333333334;
46381;PMS5003;66809;52.974;-2.514;2023-04-03T02:04:34;8.0;6.95;
46381;PMS5003;66809;52.974;-2.514;2023-04-03T02:06:33;8.016666666666667;6.966666666666667;
46381;PMS5003;66809;52.974;-2.514;2023-04-03T02:08:34;8.116666666666667;7.066666666666666;
46381;PMS5003;66809;52.974;-2.514;2023-04-03T02:10:33;8.116666666666667;7.066666666666666;
46381;PMS5003;66809;52.974;-2.514;2023-04-03T02:12:33;8.183333333333334;7.1;
46381;PMS5003;66809;52.974;-2.514;2023-04-03T02:14:34;8.266666666666667;7.183333333333334;
46381;PMS5003;66809;52.974;-2.514;2023-04-03T02:16:33;8.216666666666667;7.133333333333334;
46381;PMS5003;66809;52.974;-2.514;2023-04-03T02:18:33;8.283333333333333;7.133333333333334;
46381;PMS5003;66809;52.974;-2.514;2023-04-03T02:20:34;8.266666666666667;7.133333333333334;
46381;PMS5003;66809;52.974;-2.514;2023-04-03T02:22:34;8.316666666666666;7.15;
46381;PMS5003;66809;52.974;-2.514;2023-04-03T02:24:34;8.216666666666667;7.083333333333333;
46381;PMS5003;66809;52.974;-2.514;2023-04-03T02:26:33;8.2;7.016666666666667;
46381;PMS5003;66809;52.974;-2.514;2023-04-03T02:28:33;8.133333333333333;7.0;
46381;PMS5003;66809;52.974;-2.514;2023-04-03T02:30:33;8.116666666666667;7.016666666666667;
46381;PMS5003;66809;52.974;-2.514;2023-04-03T02:32:33;8.116666666666667;7.0;
46381;PMS5003;66809;52.974;-2.514;2023-04-03T02:34:34;8.116666666666667;6.983333333333333;
46381;PMS5003;66809;52.974;-2.514;2023-04-03T02:36:33;8.216666666666667;7.05;
46381;PMS5003;66809;52.974;-2.514;2023-04-03T02:38:33;8.216666666666667;7.1;
46381;PMS5003;66809;52.974;-2.514;2023-04-03T02:40:33;8.216666666666667;7.116666666666666;
46381;PMS5003;66809;52.974;-2.514;2023-04-03T02:42:33;8.2;7.083333333333333;
46381;PMS5003;66809;52.974;-2.514;2023-04-03T02:44:34;8.2;7.05;
46381;PMS5003;66809;52.974;-2.514;2023-04-03T02:46:33;8.183333333333334;7.066666666666666;
46381;PMS5003;66809;52.974;-2.514;2023-04-03T02:48:33;8.166666666666666;7.066666666666666;
46381;PMS5003;66809;52.974;-2.514;2023-04-03T02:50:33;8.2;7.1;
46381;PMS5003;66809;52.974;-2.514;2023-04-03T02:52:34;8.333333333333334;7.233333333333333;
46381;PMS5003;66809;52.974;-2.514;2023-04-03T02:54:33;8.483333333333333;7.3;
46381;PMS5003;66809;52.974;-2.514;2023-04-03T02:56:35;8.666666666666666;7.433333333333334;
46381;PMS5003;66809;52.974;-2.514;2023-04-03T02:58:33;8.683333333333334;7.483333333333333;
46381;PMS5003;66809;52.974;-2.514;2023-04-03T03:00:33;8.8;7.65;
46381;PMS5003;66809;52.974;-2.514;2023-04-03T03:02:33;8.966666666666667;7.733333333333333;
46381;PMS5003;66809;52.974;-2.514;2023-04-03T03:04:34;9.15;7.9;
46381;PMS5003;66809;52.974;-2.514;2023-04-03T03:06:34;9.183333333333334;7.933333333333334;
46381;PMS5003;66809;52.974;-2.514;2023-04-03T03:08:33;9.2;7.9;
46381;PMS5003;66809;52.974;-2.514;2023-04-03T03:10:33;9.25;7.966666666666667;
46381;PMS5003;66809;52.974;-2.514;2023-04-03T03:12:33;9.3;8.05;
46381;PMS5003;66809;52.974;-2.514;2023-04-03T03:14:34;9.333333333333334;8.016666666666667;
46381;PMS5003;66809;52.974;-2.514;2023-04-03T03:16:33;9.333333333333334;8.05;
46381;PMS5003;66809;52.974;-2.514;2023-04-03T03:18:33;9.416666666666666;8.183333333333334;
46381;PMS5003;66809;52.974;-2.514;2023-04-03T03:20:33;9.416666666666666;8.233333333333333;
46381;PMS5003;66809;52.974;-2.514;2023-04-03T03:22:34;9.483333333333333;8.35;
46381;PMS5003;66809;52.974;-2.514;2023-04-03T03:24:33;9.683333333333334;8.55;
46381;PMS5003;66809;52.974;-2.514;2023-04-03T03:26:33;9.766666666666667;8.683333333333334;
46381;PMS5003;66809;52.974;-2.514;2023-04-03T03:28:34;9.833333333333334;8.766666666666667;
46381;PMS5003;66809;52.974;-2.514;2023-04-03T03:30:34;9.833333333333334;8.783333333333333;
46381;PMS5003;66809;52.974;-2.514;2023-04-03T03:32:33;9.933333333333334;8.866666666666667;
46381;PMS5003;66809;52.974;-2.514;2023-04-03T03:34:33;10.066666666666666;8.916666666666666;
46381;PMS5003;66809;52.974;-2.514;2023-04-03T03:36:33;10.1;8.95;
46381;PMS5003;66809;52.974;-2.514;2023-04-03T03:38:34;10.183333333333334;8.983333333333333;
46381;PMS5003;66809;52.974;-2.514;2023-04-03T03:40:33;10.166666666666666;8.95;
46381;PMS5003;66809;52.974;-2.514;2023-04-03T03:42:33;10.25;9.033333333333333;
46381;PMS5003;66809;52.974;-2.514;2023-04-03T03:44:34;10.283333333333333;9.1;
46381;PMS5003;66809;52.974;-2.514;2023-04-03T03:46:33;10.283333333333333;9.15;
46381;PMS5003;66809;52.974;-2.514;2023-04-03T03:48:33;10.383333333333333;9.183333333333334;
46381;PMS5003;66809;52.974;-2.514;2023-04-03T03:50:34;10.483333333333333;9.266666666666667;
46381;PMS5003;66809;52.974;-2.514;2023-04-03T03:52:34;10.55;9.266666666666667;
46381;PMS5003;66809;52.974;-2.514;2023-04-03T03:54:33;10.466666666666667;9.266666666666667;
46381;PMS5003;66809;52.974;-2.514;2023-04-03T03:56:34;10.4;9.216666666666667;
46381;PMS5003;66809;52.974;-2.514;2023-04-03T03:58:33;10.45;9.216666666666667;
46381;PMS5003;66809;52.974;-2.514;2023-04-03T04:00:33;10.366666666666667;9.116666666666667;
46381;PMS5003;66809;52.974;-2.514;2023-04-03T04:02:34;10.333333333333334;9.066666666666666;
46381;PMS5003;66809;52.974;-2.514;2023-04-03T04:04:33;10.35;9.033333333333333;
46381;PMS5003;66809;52.974;-2.514;2023-04-03T04:06:33;10.633333333333333;9.166666666666666;
46381;PMS5003;66809;52.974;-2.514;2023-04-03T04:08:34;10.683333333333334;9.233333333333333;
46381;PMS5003;66809;52.974;-2.514;2023-04-03T04:10:34;10.75;9.316666666666666;
46381;PMS5003;66809;52.974;-2.514;2023-04-03T04:12:33;10.8;9.333333333333334;
46381;PMS5003;66809;52.974;-2.514;2023-04-03T04:14:33;10.933333333333334;9.483333333333333;
46381;PMS5003;66809;52.974;-2.514;2023-04-03T04:16:34;11.1;9.666666666666666;
46381;PMS5003;66809;52.974;-2.514;2023-04-03T04:18:33;11.2;9.716666666666667;
46381;PMS5003;66809;52.974;-2.514;2023-04-03T04:20:33;11.35;9.816666666666666;
46381;PMS5003;66809;52.974;-2.514;2023-04-03T04:22:33;11.383333333333333;9.833333333333334;
46381;PMS5003;66809;52.974;-2.514;2023-04-03T04:24:34;11.4;9.8;
46381;PMS5003;66809;52.974;-2.514;2023-04-03T04:26:33;11.366666666666667;9.75;
46381;PMS5003;66809;52.974;-2.514;2023-04-03T04:28:33;11.4;9.8;
46381;PMS5003;66809;52.974;-2.514;2023-04-03T04:30:34;11.483333333333333;9.833333333333334;
46381;PMS5003;66809;52.974;-2.514;2023-04-03T04:32:33;11.466666666666667;9.8;
46381;PMS5003;66809;52.974;-2.514;2023-04-03T04:34:33;11.4;9.866666666666667;
46381;PMS5003;66809;52.974;-2.514;2023-04-03T04:36:34;11.316666666666666;9.833333333333334;
46381;PMS5003;66809;52.974;-2.514;2023-04-03T04:38:33;11.3;9.866666666666667;
46381;PMS5003;66809;52.974;-2.514;2023-04-03T04:40:33;11.366666666666667;9.95;
46381;PMS5003;66809;52.974;-2.514;2023-04-03T04:42:34;11.383333333333333;9.966666666666667;
46381;PMS5003;66809;52.974;-2.514;2023-04-03T04:44:34;11.4;9.966666666666667;
46381;PMS5003;66809;52.974;-2.514;2023-04-03T04:46:33;11.483333333333333;10.0;
46381;PMS5003;66809;52.974;-2.514;2023-04-03T04:48:33;11.416666666666666;10.016666666666667;
46381;PMS5003;66809;52.974;-2.514;2023-04-03T04:50:34;11.333333333333334;9.916666666666666;
46381;PMS5003;66809;52.974;-2.514;2023-04-03T04:52:33;11.35;9.95;
46381;PMS5003;66809;52.974;-2.514;2023-04-03T04:54:33;11.316666666666666;9.95;
46381;PMS5003;66809;52.974;-2.514;2023-04-03T04:56:34;11.366666666666667;9.95;
46381;PMS5003;66809;52.974;-2.514;2023-04-03T04:58:34;11.416666666666666;10.016666666666667;
46381;PMS5003;66809;52.974;-2.514;2023-04-03T05:00:33;11.55;10.083333333333334;
46381;PMS5003;66809;52.974;-2.514;2023-04-03T05:02:33;11.533333333333333;10.133333333333333;
46381;PMS5003;66809;52.974;-2.514;2023-04-03T05:04:34;11.583333333333334;10.166666666666666;
46381;PMS5003;66809;52.974;-2.514;2023-04-03T05:06:33;11.433333333333334;10.133333333333333;
46381;PMS5003;66809;52.974;-2.514;2023-04-03T05:08:33;11.483333333333333;10.216666666666667;
46381;PMS5003;66809;52.974;-2.514;2023-04-03T05:10:34;11.8;10.35;
46381;PMS5003;66809;52.974;-2.514;2023-04-03T05:12:33;12.033333333333333;10.516666666666667;
46381;PMS5003;66809;52.974;-2.514;2023-04-03T05:14:33;12.116666666666667;10.666666666666666;
46381;PMS5003;66809;52.974;-2.514;2023-04-03T05:16:34;12.216666666666667;10.766666666666667;
46381;PMS5003;66809;52.974;-2.514;2023-04-03T05:18:33;12.166666666666666;10.75;
46381;PMS5003;66809;52.974;-2.514;2023-04-03T05:20:33;12.083333333333334;10.733333333333333;
46381;PMS5003;66809;52.974;-2.514;2023-04-03T05:22:34;12.05;10.7;
46381;PMS5003;66809;52.974;-2.514;2023-04-03T05:24:34;12.016666666666667;10.7;
46381;PMS5003;66809;52.974;-2.514;2023-04-03T05:26:33;12.066666666666666;10.7;
46381;PMS5003;66809;52.974;-2.514;2023-04-03T05:28:33;12.05;10.633333333333333;
46381;PMS5003;66809;52.974;-2.514;2023-04-03T05:30:33;12.0;10.633333333333333;
46381;PMS5003;66809;52.974;-2.514;2023-04-03T05:32:34;11.966666666666667;10.6;
46381;PMS5003;66809;52.974;-2.514;2023-04-03T05:34:33;12.016666666666667;10.65;
46381;PMS5003;66809;52.974;-2.514;2023-04-03T05:36:33;12.066666666666666;10.716666666666667;
46381;PMS5003;66809;52.974;-2.514;2023-04-03T05:38:34;12.083333333333334;10.7;
46381;PMS5003;66809;52.974;-2.514;2023-04-03T05:40:34;12.083333333333334;10.716666666666667;
46381;PMS5003;66809;52.974;-2.514;2023-04-03T05:42:33;12.083333333333334;10.716666666666667;
46381;PMS5003;66809;52.974;-2.514;2023-04-03T05:44:33;12.15;10.75;
46381;PMS5003;66809;52.974;-2.514;2023-04-03T05:46:33;12.283333333333333;10.8;
46381;PMS5003;66809;52.974;-2.514;2023-04-03T05:48:34;12.45;10.883333333333333;
46381;PMS5003;66809;52.974;-2.514;2023-04-03T05:50:33;12.466666666666667;10.916666666666666;
46381;PMS5003;66809;52.974;-2.514;2023-04-03T05:52:34;12.4;10.866666666666667;
46381;PMS5003;66809;52.974;-2.514;2023-04-03T05:54:33;12.366666666666667;10.866666666666667;
46381;PMS5003;66809;52.974;-2.514;2023-04-03T05:56:34;12.416666666666666;10.916666666666666;
46381;PMS5003;66809;52.974;-2.514;2023-04-03T05:58:33;12.483333333333333;10.933333333333334;
46381;PMS5003;66809;52.974;-2.514;2023-04-03T06:00:33;12.4;10.9;
46381;PMS5003;66809;52.974;-2.514;2023-04-03T06:02:33;12.366666666666667;10.9;
46381;PMS5003;66809;52.974;-2.514;2023-04-03T06:04:34;12.25;10.833333333333334;
46381;PMS5003;66809;52.974;-2.514;2023-04-03T06:06:49;12.166666666666666;10.75;
46381;PMS5003;66809;52.974;-2.514;2023-04-03T06:08:33;12.083333333333334;10.666666666666666;
46381;PMS5003;66809;52.974;-2.514;2023-04-03T06:10:33;11.683333333333334;10.433333333333334;
46381;PMS5003;66809;52.974;-2.514;2023-04-03T06:12:34;11.4;10.233333333333333;
46381;PMS5003;66809;52.974;-2.514;2023-04-03T06:14:33;11.2;10.016666666666667;
46381;PMS5003;66809;52.974;-2.514;2023-04-03T06:16:33;10.983333333333333;9.783333333333333;
46381;PMS5003;66809;52.974;-2.514;2023-04-03T06:18:33;10.866666666666667;9.7;
46381;PMS5003;66809;52.974;-2.514;2023-04-03T06:20:34;10.75;9.583333333333334;
46381;PMS5003;66809;52.974;-2.514;2023-04-03T06:22:34;10.666666666666666;9.516666666666667;
46381;PMS5003;66809;52.974;-2.514;2023-04-03T06:24:33;10.533333333333333;9.4;
46381;PMS5003;66809;52.974;-2.514;2023-04-03T06:26:33;10.316666666666666;9.25;
46381;PMS5003;66809;52.974;-2.514;2023-04-03T06:28:33;10.433333333333334;9.366666666666667;
46381;PMS5003;66809;52.974;-2.514;2023-04-03T06:30:34;10.383333333333333;9.35;
46381;PMS5003;66809;52.974;-2.514;2023-04-03T06:32:34;10.266666666666667;9.3;
46381;PMS5003;66809;52.974;-2.514;2023-04-03T06:34:34;10.1;9.133333333333333;
46381;PMS5003;66809;52.974;-2.514;2023-04-03T06:36:33;10.066666666666666;9.033333333333333;
46381;PMS5003;66809;52.974;-2.514;2023-04-03T06:38:33;9.916666666666666;8.9;
46381;PMS5003;66809;52.974;-2.514;2023-04-03T06:40:34;9.783333333333333;8.766666666666667;
46381;PMS5003;66809;52.974;-2.514;2023-04-03T06:42:33;9.716666666666667;8.7;
46381;PMS5003;66809;52.974;-2.514;2023-04-03T06:44:34;9.65;8.666666666666666;
46381;PMS5003;66809;52.974;-2.514;2023-04-03T06:46:34;9.416666666666666;8.533333333333333;
46381;PMS5003;66809;52.974;-2.514;2023-04-03T06:48:33;9.283333333333333;8.433333333333334;
46381;PMS5003;66809;52.974;-2.514;2023-04-03T06:50:34;9.25;8.4;
46381;PMS5003;66809;52.974;-2.514;2023-04-03T06:52:34;9.2;8.383333333333333;
46381;PMS5003;66809;52.974;-2.514;2023-04-03T06:54:33;9.166666666666666;8.333333333333334;
46381;PMS5003;66809;52.974;-2.514;2023-04-03T06:56:33;9.066666666666666;8.266666666666667;
46381;PMS5003;66809;52.974;-2.514;2023-04-03T06:58:33;8.966666666666667;8.233333333333333;
46381;PMS5003;66809;52.974;-2.514;2023-04-03T07:00:34;8.883333333333333;8.166666666666666;
46381;PMS5003;66809;52.974;-2.514;2023-04-03T07:02:34;8.9;8.15;
46381;PMS5003;66809;52.974;-2.514;2023-04-03T07:04:33;9.066666666666666;8.35;
46381;PMS5003;66809;52.974;-2.514;2023-04-03T07:06:34;9.1;8.366666666666667;
46381;PMS5003;66809;52.974;-2.514;2023-04-03T07:08:33;9.016666666666667;8.266666666666667;
46381;PMS5003;66809;52.974;-2.514;2023-04-03T07:10:33;9.066666666666666;8.316666666666666;
46381;PMS5003;66809;52.974;-2.514;2023-04-03T07:12:34;8.983333333333333;8.25;
46381;PMS5003;66809;52.974;-2.514;2023-04-03T07:14:33;9.116666666666667;8.3;
46381;PMS5003;66809;52.974;-2.514;2023-04-03T07:16:33;9.166666666666666;8.366666666666667;
46381;PMS5003;66809;52.974;-2.514;2023-04-03T07:18:33;9.25;8.416666666666666;
46381;PMS5003;66809;52.974;-2.514;2023-04-03T07:20:33;9.333333333333334;8.466666666666667;
46381;PMS5003;66809;52.974;-2.514;2023-04-03T07:22:33;9.433333333333334;8.55;
46381;PMS5003;66809;52.974;-2.514;2023-04-03T07:24:34;9.5;8.616666666666667;
46381;PMS5003;66809;52.974;-2.514;2023-04-03T07:26:34;9.55;8.683333333333334;
46381;PMS5003;66809;52.974;-2.514;2023-04-03T07:28:33;9.383333333333333;8.5;
46381;PMS5003;66809;52.974;-2.514;2023-04-03T07:30:33;9.3;8.4;
46381;PMS5003;66809;52.974;-2.514;2023-04-03T07:32:33;9.266666666666667;8.366666666666667;
46381;PMS5003;66809;52.974;-2.514;2023-04-03T07:34:34;9.4;8.383333333333333;
46381;PMS5003;66809;52.974;-2.514;2023-04-03T07:36:33;9.266666666666667;8.3;
46381;PMS5003;66809;52.974;-2.514;2023-04-03T07:38:33;9.266666666666667;8.316666666666666;
46381;PMS5003;66809;52.974;-2.514;2023-04-03T07:40:34;9.333333333333334;8.366666666666667;
46381;PMS5003;66809;52.974;-2.514;2023-04-03T07:42:34;9.366666666666667;8.283333333333333;
46381;PMS5003;66809;52.974;-2.514;2023-04-03T07:44:33;9.3;8.216666666666667;
46381;PMS5003;66809;52.974;-2.514;2023-04-03T07:46:33;9.3;8.2;
46381;PMS5003;66809;52.974;-2.514;2023-04-03T07:48:34;9.2;8.133333333333333;
46381;PMS5003;66809;52.974;-2.514;2023-04-03T07:50:34;9.216666666666667;8.116666666666667;
46381;PMS5003;66809;52.974;-2.514;2023-04-03T07:52:33;9.216666666666667;8.066666666666666;
46381;PMS5003;66809;52.974;-2.514;2023-04-03T07:54:33;9.116666666666667;7.983333333333333;
46381;PMS5003;66809;52.974;-2.514;2023-04-03T07:56:34;9.0;7.883333333333334;
46381;PMS5003;66809;52.974;-2.514;2023-04-03T07:58:34;8.916666666666666;7.816666666666666;
46381;PMS5003;66809;52.974;-2.514;2023-04-03T08:00:33;8.883333333333333;7.733333333333333;
46381;PMS5003;66809;52.974;-2.514;2023-04-03T08:02:33;8.783333333333333;7.583333333333333;
46381;PMS5003;66809;52.974;-2.514;2023-04-03T08:04:34;8.55;7.266666666666667;
46381;PMS5003;66809;52.974;-2.514;2023-04-03T08:06:34;8.416666666666666;7.183333333333334;
46381;PMS5003;66809;52.974;-2.514;2023-04-03T08:08:33;8.3;7.083333333333333;
46381;PMS5003;66809;52.974;-2.514;2023-04-03T08:10:33;8.15;6.95;
46381;PMS5003;66809;52.974;-2.514;2023-04-03T08:12:33;8.15;6.883333333333334;
46381;PMS5003;66809;52.974;-2.514;2023-04-03T08:14:34;7.883333333333334;6.733333333333333;
46381;PMS5003;66809;52.974;-2.514;2023-04-03T08:16:34;7.8;6.616666666666666;
46381;PMS5003;66809;52.974;-2.514;2023-04-03T08:18:33;7.566666666666666;6.4;
46381;PMS5003;66809;52.974;-2.514;2023-04-03T08:20:34;7.383333333333334;6.25;
46381;PMS5003;66809;52.974;-2.514;2023-04-03T08:22:34;7.233333333333333;6.066666666666666;
46381;PMS5003;66809;52.974;-2.514;2023-04-03T08:24:33;7.15;5.95;
46381;PMS5003;66809;52.974;-2.514;2023-04-03T08:26:34;7.166666666666667;5.9;
46381;PMS5003;66809;52.974;-2.514;2023-04-03T08:28:33;7.2;5.916666666666667;
46381;PMS5003;66809;52.974;-2.514;2023-04-03T08:30:33;7.233333333333333;5.95;
46381;PMS5003;66809;52.974;-2.514;2023-04-03T08:32:33;7.316666666666666;5.983333333333333;
46381;PMS5003;66809;52.974;-2.514;2023-04-03T08:34:34;7.2;5.966666666666667;
46381;PMS5003;66809;52.974;-2.514;2023-04-03T08:36:34;7.35;6.0;
46381;PMS5003;66809;52.974;-2.514;2023-04-03T08:38:33;7.433333333333334;6.0;
46381;PMS5003;66809;52.974;-2.514;2023-04-03T08:40:33;7.416666666666667;5.983333333333333;
46381;PMS5003;66809;52.974;-2.514;2023-04-03T08:42:36;7.4;6.083333333333333;
46381;PMS5003;66809;52.974;-2.514;2023-04-03T08:44:37;7.4;6.116666666666666;
46381;PMS5003;66809;52.974;-2.514;2023-04-03T08:46:38;7.533333333333333;6.166666666666667;
46381;PMS5003;66809;52.974;-2.514;2023-04-03T08:48:34;7.533333333333333;6.15;
46381;PMS5003;66809;52.974;-2.514;2023-04-03T08:50:35;7.55;6.15;
46381;PMS5003;66809;52.974;-2.514;2023-04-03T08:52:34;7.55;6.15;
46381;PMS5003;66809;52.974;-2.514;2023-04-03T08:54:34;7.6;6.2;
46381;PMS5003;66809;52.974;-2.514;2023-04-03T08:56:34;7.7;6.266666666666667;
46381;PMS5003;66809;52.974;-2.514;2023-04-03T08:58:35;7.65;6.2;
46381;PMS5003;66809;52.974;-2.514;2023-04-03T09:00:34;7.716666666666667;6.283333333333333;
46381;PMS5003;66809;52.974;-2.514;2023-04-03T09:02:34;7.7;6.35;
46381;PMS5003;66809;52.974;-2.514;2023-04-03T09:04:34;7.766666666666667;6.466666666666667;
46381;PMS5003;66809;52.974;-2.514;2023-04-03T09:06:33;7.8;6.483333333333333;
46381;PMS5003;66809;52.974;-2.514;2023-04-03T09:08:35;7.9;6.533333333333333;
46381;PMS5003;66809;52.974;-2.514;2023-04-03T09:10:34;7.916666666666667;6.566666666666666;
46381;PMS5003;66809;52.974;-2.514;2023-04-03T09:12:34;7.916666666666667;6.583333333333333;
46381;PMS5003;66809;52.974;-2.514;2023-04-03T09:14:35;7.966666666666667;6.583333333333333;
46381;PMS5003;66809;52.974;-2.514;2023-04-03T09:16:36;8.0;6.583333333333333;
46381;PMS5003;66809;52.974;-2.514;2023-04-03T09:18:35;8.116666666666667;6.7;
46381;PMS5003;66809;52.974;-2.514;2023-04-03T09:20:38;8.166666666666666;6.766666666666667;
46381;PMS5003;66809;52.974;-2.514;2023-04-03T09:22:41;8.25;6.883333333333334;
46381;PMS5003;66809;52.974;-2.514;2023-04-03T09:24:33;8.366666666666667;6.916666666666667;
46381;PMS5003;66809;52.974;-2.514;2023-04-03T09:26:35;8.416666666666666;6.983333333333333;
46381;PMS5003;66809;52.974;-2.514;2023-04-03T09:28:34;8.466666666666667;7.016666666666667;
46381;PMS5003;66809;52.974;-2.514;2023-04-03T09:30:33;8.45;6.983333333333333;
46381;PMS5003;66809;52.974;-2.514;2023-04-03T09:32:34;8.416666666666666;6.933333333333334;
46381;PMS5003;66809;52.974;-2.514;2023-04-03T09:34:35;8.45;6.95;
46381;PMS5003;66809;52.974;-2.514;2023-04-03T09:36:37;8.466666666666667;7.05;
46381;PMS5003;66809;52.974;-2.514;2023-04-03T09:38:34;8.416666666666666;7.066666666666666;